Terminal Aerodrome Forecast
Issued by NWS

Home | Current Version | Previous Version | Text Only | Print | Product List | Glossary On
Versions: 1 2 3 4 5 6 7 8 9 10 11 12
628
FTUS45 KVEF 310520
TAFHND
TAF
KHND 310520Z 3106/0106 17008KT P6SM SKC
     FM311500 VRB05KT P6SM SKC
     FM312000 19012G20KT P6SM FEW130=

USA.gov is the U.S. government's official web portal to all federal, state and local government web resources and services.